Weather observations for the past three days for
Marion Municipal Airport
Metric (Imperial)
Date Time (edt) Wind (kph) Vis. (km) Weather Sky Cond. Temperature (ºC) Relative Humidity Wind Chill (°C) Heat Index (°C) Pressure Precipitation (cm)
Air Dwpt 6 hour altimeter (cm) sea level (mb) 1 hr 3 hr 6 hr
Max. Min.
02 10:15 SW 11 11.27 Partly Cloudy SCT070 27.6 22 72% 30 76.35 0.0
02 09:55 SW 9 11.27 Partly Cloudy SCT070 26.7 21.9 75% 29 76.35 0.0
02 09:35 Calm 8.05 Mostly Cloudy with Haze BKN070 25.9 21.6 77% 27 76.38 0.0
02 09:15 SW 7 8.05 Fair with Haze CLR 25.2 21.4 80% 26 76.38 0.0
02 08:55 SW 6 11.27 Fair CLR 24.3 21 82% 25 76.38 0.0
02 08:35 SW 6 8.05 Fair with Haze CLR 23.4 20.6 84% 76.38 0.0
02 08:15 Calm 11.27 Fair CLR 22.3 20 87% 76.38 0.0
02 07:55 SW 6 16.09 Fair CLR 21.6 19.6 32.6 9.5 88% 76.38 0.0
02 07:35 SW 6 6.44 Fog/Mist CLR 20.1 18.9 93% 76.38 0.0
02 07:15 Calm 11.27 Fair CLR 19.8 18.6 93% 76.35 0.0
02 06:55 Calm 11.27 Fair CLR 20.2 18.9 92% 76.33 0.0
02 06:35 Calm 8.05 Fog/Mist CLR 20.1 18.8 92% 76.33 0.0
02 06:15 Calm 16.09 Fair CLR 20.6 19.2 92% 76.3 0.0
02 05:55 Calm 16.09 Fair CLR 20.7 19.3 92% 76.3 0.0
02 05:35 Calm 16.09 Fair CLR 20.6 19.5 93% 76.3 0.0
02 05:15 Calm 11.27 Fair CLR 19.9 18.8 93% 76.3 0.0
02 04:55 Calm 16.09 Fair CLR 19.9 18.8 93% 76.3 0.0
02 04:35 Calm 11.27 Fair CLR 20 18.9 93% 76.3 0.0
02 04:15 Calm 11.27 Fair CLR 20.7 19.5 93% 76.28 0.0
02 03:55 Calm 16.09 Fair CLR 20.8 19.6 93% 76.25 0.0
02 03:35 Calm 11.27 Fair CLR 21.3 19.8 91% 76.25 0.0
02 02:55 Calm 16.09 Fair CLR 21 19.7 92% 76.28 0.0
02 02:35 Calm 11.27 Fair CLR 21.8 20.3 91% 76.28 0.0
02 02:15 S 6 16.09 Fair CLR 22.1 20.5 91% 76.3 0.0
02 01:55 S 6 11.27 Fair CLR 22 20.6 32.6 9.5 92% 76.3 0.0
02 01:35 Calm 16.09 Fair CLR 21.5 20.3 93% 76.3 0.0
02 01:15 Calm 11.27 Fair CLR 21.6 20.4 93% 76.3 0.0
02 00:55 Calm 16.09 Fair CLR 22.2 20.8 92% 76.28 0.0
02 00:35 Calm 16.09 Fair CLR 22.6 21.1 91% 76.3 0.0
02 00:15 Calm 11.27 Fair CLR 22.3 21.1 93% 76.28 0.0
01 23:55 S 6 11.27 Fair CLR 22.4 21.2 93% 76.28 0.0
01 23:35 Calm 11.27 Fair CLR 23 21.5 91% 76.28 0.0
01 23:15 S 6 16.09 Partly Cloudy SCT080 23.7 22 90% 76.3 0.0
01 22:55 S 6 11.27 Partly Cloudy SCT080 24 22.1 89% 24 76.3 0.0
01 22:35 SW 7 11.27 Fair CLR 24.1 22.1 89% 24 76.3 0.0
01 22:15 Calm 16.09 Partly Cloudy SCT100 24.8 22.4 87% 25 76.28 0.0
01 21:55 SW 7 16.09 Partly Cloudy SCT100 24.8 22.6 88% 25 76.25 0.0
01 21:35 S 6 11.27 Partly Cloudy SCT100 24.8 22.7 88% 25 76.25 0.0
01 21:15 S 6 11.27 Fair CLR 25.1 22.9 88% 26 76.25 0.0
01 20:55 SW 6 11.27 Fair CLR 26 23.2 85% 28 76.23 0.0
01 20:35 W 6 6.44 Fair with Haze CLR 26.5 23.7 85% 29 76.23 0.0
01 20:15 SW 6 8.05 Fair with Haze CLR 27.6 24.1 81% 31 76.23 0.0
01 19:55 SW 6 6.44 Fair with Haze CLR 28.8 24.1 32.6 9.5 76% 33 76.23 0.0
01 19:35 SW 6 11.27 Fair CLR 29.9 24 71% 35 76.25 0.0
01 19:15 Calm 8.05 Fair with Haze CLR 30.6 24 68% 36 76.25 0.0
01 18:55 Calm 8.05 Fair with Haze CLR 30.8 24 67% 36 76.25 0.0
01 18:35 W 7 11.27 Fair CLR 31.3 23.6 64% 36 76.25 0.0
01 18:15 W 7 6.44 Fair with Haze CLR 31.7 22.8 59% 36 76.23 0.0
01 17:55 W 9 8.05 Fair with Haze CLR 31.9 22.5 58% 36 76.25 0.0
01 17:35 W 7 11.27 Fair CLR 32.1 22.2 56% 36 76.23 0.0
01 17:15 W 9 11.27 Fair CLR 32.2 22.3 56% 36 76.23 0.0
01 16:55 W 11 11.27 Fair CLR 32.4 22.3 55% 37 76.25 0.0
01 16:35 SW 9 11.27 Fair CLR 32.5 22.4 55% 37 76.25 0.0
01 16:15 SW 15 11.27 Fair CLR 32.5 21.9 54% 36 76.25 0.0
01 15:55 SW 13 11.27 Fair CLR 32.5 21.9 54% 36 76.25 0.0
01 15:35 SW 11 11.27 Fair CLR 32.5 22 54% 36 76.25 0.0
01 15:15 W 13 11.27 Partly Cloudy SCT120 32.4 22.2 55% 36 76.25 0.0
01 14:55 SW 11 11.27 Partly Cloudy SCT120 31.9 21.9 55% 36 76.28 0.0
01 14:35 SW 15 16.09 Partly Cloudy SCT120 31.6 21.8 56% 35 76.28 0.0
01 14:15 SW 15 11.27 Fair CLR 31.4 21.8 57% 35 76.3 0.0
01 13:55 SW 11 11.27 Fair CLR 31 22 31.2 9.5 59% 35 76.28 0.0
01 13:35 SW 11 11.27 Fair CLR 31.1 22.4 60% 35 76.3 0.0
01 13:15 SW 11 11.27 Fair CLR 30.8 22.1 60% 34 76.3 0.0
01 12:55 SW 13 11.27 Fair CLR 30.6 21.9 60% 34 76.3 0.0
01 12:35 SW 13 11.27 Fair CLR 30.3 21.8 60% 34 76.33 0.0
01 12:15 SW 9 16.09 Fair CLR 29.7 21.5 61% 33 76.33 0.0
01 11:55 SW 15 11.27 Fair CLR 29.3 21.3 62% 32 76.35 0.0
01 11:35 SW 13 16.09 Fair CLR 28.7 21.2 64% 31 76.35 0.0
01 11:15 SW 9 11.27 Fair CLR 28.5 21.2 65% 31 76.35 0.0
01 10:55 SW 11 16.09 Fair CLR 28 21 66% 30 76.38 0.0
01 10:35 SW 13 11.27 Fair CLR 27.6 21 67% 30 76.35 0.0
01 10:15 SW 15 16.09 Fair CLR 27 20.8 69% 29 76.38 0.0
01 09:55 SW 9 11.27 Fair CLR 26.5 20.7 71% 28 76.38 0.0
01 09:35 SW 9 11.27 Fair CLR 26.1 20.7 72% 28 76.38 0.0
01 09:15 SW 6 11.27 Fair CLR 25.3 20.6 75% 26 76.38 0.0
01 08:55 SW 7 11.27 Fair CLR 24.3 20.6 80% 25 76.38 0.0
01 08:35 SW 6 16.09 Fair CLR 23.3 20.5 84% 76.38 0.0
01 08:15 Calm 11.27 Fair CLR 22.3 20.2 88% 76.38 0.0
01 07:50 Calm 11.27 Fair CLR 21.4 19.7 31.2 9.5 90% 76.35 0.0
01 07:35 Calm 11.27 Fair CLR 21.2 19.5 90% 76.33 0.0
01 07:15 Calm 11.27 Fair CLR 21.6 19.7 89% 76.33 0.0
01 06:55 SW 6 16.09 Fair CLR 22 20 88% 76.3 0.0
01 06:35 Calm 16.09 Fair CLR 21.9 20 89% 76.3 0.0
01 06:15 Calm 11.27 Fair CLR 22.4 20 86% 76.3 0.0
01 05:55 SW 7 11.27 Fair CLR 22.7 20 85% 76.3 0.0
01 05:35 W 6 11.27 Fair CLR 22.9 20 84% 76.28 0.0
01 05:15 SW 7 16.09 Fair CLR 22.8 20.1 85% 76.25 0.0
01 04:35 SW 9 16.09 Fair CLR 23.4 20 81% 76.25 0.0
01 04:10 SW 9 16.09 Fair CLR 23.7 20 80% 76.25 0.0
01 03:55 SW 9 11.27 Fair CLR 23.9 20 79% 24 76.25 0.0
01 03:35 SW 11 16.09 Fair CLR 24.1 20.1 78% 25 76.25 0.0
01 03:15 SW 11 16.09 Fair CLR 24.1 20.3 79% 25 76.23 0.0
01 02:55 SW 11 11.27 Fair CLR 24 20.6 81% 24 76.25 0.0
01 02:35 SW 9 16.09 Fair CLR 23.8 20.9 84% 76.25 0.0
01 02:15 SW 9 11.27 Fair CLR 23.7 21 85% 76.25 0.0
01 01:55 SW 9 16.09 Fair CLR 23.6 21.1 31.2 9.5 86% 76.25 0.0
01 01:35 SW 7 11.27 Fair CLR 23.9 21.2 85% 24 76.28 0.0
01 01:15 SW 9 16.09 Fair CLR 24.5 21.3 82% 25 76.28 0.0
01 00:55 SW 11 11.27 Fair CLR 24.8 21.2 80% 26 76.25 0.0
01 00:35 S 11 11.27 Fair CLR 25 21.2 80% 26 76.25 0.0
01 00:15 S 13 16.09 Fair CLR 24.8 21.3 81% 26 76.25 0.0
31 23:55 S 13 16.09 Fair CLR 24.6 21.3 82% 25 76.25 0.0
31 23:35 S 13 16.09 Fair CLR 24.5 21.3 82% 25 76.25 0.0
31 23:15 S 9 11.27 Fair CLR 24.5 21.2 82% 25 76.25 0.0
31 22:55 S 9 16.09 Fair CLR 24.4 21.1 82% 25 76.3 0.0
31 22:35 S 9 16.09 Fair CLR 24.1 20.8 82% 24 76.3 0.0
31 22:15 S 9 16.09 Fair CLR 23.5 20.7 84% 76.3 0.0
31 21:55 Calm 16.09 Fair CLR 23.7 20.8 84% 76.3 0.0
31 21:35 S 7 11.27 Fair CLR 24.1 21 83% 24 76.3 0.0
31 21:15 Calm 16.09 Partly Cloudy SCT110 24.5 21.4 83% 25 76.3 0.0
31 20:55 Calm 11.27 Mostly Cloudy BKN110 24.6 21.9 85% 25 76.28 0.0
31 20:35 Calm 11.27 Mostly Cloudy BKN120 25.4 22 82% 27 76.25 0.0
31 20:15 S 6 11.27 Mostly Cloudy BKN110 26.6 21.5 74% 28 76.25 0.0
31 19:35 SW 6 11.27 Fair CLR 28.4 20.8 63% 31 76.25 0.0
31 19:15 SW 7 11.27 Fair CLR 29.1 20.4 59% 31 76.25 0.0
31 18:55 SW 7 11.27 Fair CLR 29.7 20.1 56% 32 76.25 0.0
31 18:35 SW 9 11.27 Fair CLR 30.3 20.1 54% 32 76.25 0.0
31 18:10 SW 11 11.27 Fair CLR 30.4 20.3 55% 33 76.25 0.0
31 17:55 SW 9 11.27 Fair CLR 30.6 20.1 53% 33 76.25 0.0
31 17:35 SW 13 11.27 Fair CLR 30.2 20.2 55% 32 76.25 0.0
31 17:15 SW 9 8.05 Fair with Haze CLR 30.2 19.9 54% 32 76.25 0.0
31 16:55 SW 17 11.27 Fair CLR 31 19.7 51% 33 76.25 0.0
31 16:35 SW 20 G 28 11.27 Fair CLR 31 19.8 51% 33 76.25 0.0
31 16:15 SW 17 11.27 Fair CLR 31.2 20.1 52% 33 76.28 0.0
31 15:55 SW 19 G 28 11.27 Fair CLR 31.2 20.2 52% 33 76.3 0.0
31 15:35 SW 19 G 26 11.27 Fair CLR 31 20.1 52% 33 76.33 0.0
31 15:15 SW 11 16.09 Fair CLR 30.7 20.9 56% 33 76.38 0.0
31 14:35 SW 6 16.09 Fair CLR 28.9 21.4 64% 31 76.4 0.0
31 14:15 SW 6 11.27 Fair CLR 28.8 21.3 64% 31 76.43 0.0
31 13:55 SW 11 11.27 Fair CLR 28.7 20.5 28.9 9.5 61% 31 76.45 0.0
31 13:35 SW 11 16.09 Fair CLR 28.8 20.2 60% 31 76.43 0.0
31 13:15 SW 15 11.27 Fair CLR 28.6 20.6 62% 31 76.43 0.0
31 12:55 SW 11 11.27 Fair CLR 28.3 20.9 64% 30 76.45 0.0
31 12:35 W 11 16.09 Fair CLR 27.4 21.2 69% 29 76.45 0.0
31 12:15 W 7 11.27 Fair CLR 26.9 20.9 70% 29 76.48 0.0
31 11:55 W 9 16.09 Fair CLR 27.2 21.5 71% 29 76.45 0.0
31 11:35 SW 11 11.27 Fair CLR 26.2 21.3 74% 28 76.45 0.0
31 11:15 SW 6 11.27 Fair CLR 25.6 21.1 76% 27 76.45 0.0
31 10:55 SW 7 16.09 Fair CLR 25.1 20.6 76% 26 76.45 0.0
31 10:35 SW 7 11.27 Fair CLR 25 20.3 75% 26 76.45 0.0
31 10:15 SW 9 16.09 Fair CLR 24.3 19.8 76% 25 76.43 0.0
31 09:55 S 9 16.09 Fair CLR 23.8 19.7 78% 76.43 0.0
31 09:35 S 7 11.27 Partly Cloudy SCT110 23.1 19.3 79% 76.43 0.0
31 09:15 S 7 11.27 Partly Cloudy SCT110 23 19.1 79% 76.43 0.0
31 08:55 S 7 11.27 Fair CLR 22.7 19.1 80% 76.4 0.0
31 08:35 S 6 16.09 Fair CLR 21.8 18.7 83% 76.4 0.0
31 08:15 S 9 11.27 Fair CLR 21.2 18.5 85% 76.38 0.0
31 07:55 S 6 16.09 Fair CLR 20.2 18.2 28.9 9.5 88% 76.38 0.0
31 07:35 S 7 11.27 Fair CLR 19.8 18 89% 76.38 0.0
31 07:15 S 6 16.09 Fair CLR 19.8 17.9 89% 76.38 0.0
31 06:55 S 6 16.09 Fair CLR 20.3 18.1 87% 76.38 0.0
31 06:30 S 7 16.09 Fair CLR 20.5 18.1 86% 76.38 0.0
31 06:15 S 6 16.09 Fair CLR 20.9 18.3 85% 76.35 0.0
31 05:55 S 7 16.09 Fair CLR 21.6 18.5 83% 76.35 0.0
31 05:35 S 7 16.09 Fair CLR 21.9 18.6 82% 76.35 0.0
31 05:15 S 11 16.09 Fair CLR 21.6 18.7 84% 76.35 0.0
31 04:55 S 11 16.09 Fair CLR 21.1 18.9 87% 76.35 0.0
31 04:35 S 6 16.09 Fair CLR 21 19 88% 76.33 0.0
31 04:15 S 6 16.09 Fair CLR 21.3 19.1 87% 76.35 0.0
31 03:55 Calm 16.09 Fair CLR 21.5 19.1 86% 76.35 0.0
31 03:35 Calm 16.09 Fair CLR 21.7 19.1 85% 76.35 0.0
31 03:15 S 7 16.09 Fair CLR 21.6 19.1 86% 76.33 0.0
31 02:55 S 7 16.09 Fair CLR 21.2 19.2 88% 76.33 0.0
31 02:35 Calm 11.27 Fair CLR 21 19.2 90% 76.38 0.0
31 02:15 Calm 16.09 Fair CLR 21.2 19.3 89% 76.38 0.0
31 01:55 Calm 16.09 Fair CLR 21.7 19.2 28.9 9.5 86% 76.38 0.0
31 01:35 Calm 16.09 Fair CLR 22.1 19.1 83% 76.38 0.0
31 01:15 Calm 16.09 Fair CLR 22.3 19.2 83% 76.38 0.0
31 00:55 Calm 11.27 Fair CLR 22.2 19.2 83% 76.38 0.0
31 00:35 S 6 16.09 Fair CLR 22.4 19.2 82% 76.38 0.0
31 00:15 Calm 16.09 Fair CLR 22.6 19.2 81% 76.35 0.0
30 23:55 S 6 16.09 Fair CLR 22.7 19.4 82% 76.35 0.0
30 23:35 S 7 11.27 Fair CLR 22.6 19.8 84% 76.35 0.0
30 23:15 S 9 16.09 Fair CLR 22 20.1 89% 76.35 0.0
30 22:55 Calm 11.27 Fair CLR 22 20.3 90% 76.38 0.0
30 22:35 Calm 8.05 Fog/Mist CLR 22.6 20.4 87% 76.38 0.0
30 22:15 Calm 11.27 Fair CLR 23.2 20.3 84% 76.38 0.0
30 21:55 S 7 16.09 Fair CLR 22.9 20.3 85% 76.38 0.0
30 21:35 Calm 11.27 Fair CLR 22.5 20.7 90% 76.38 0.0
30 21:15 Calm 16.09 Fair CLR 22.7 21 90% 76.38 0.0
30 20:55 Calm 16.09 Fair CLR 22.8 20.9 89% 76.35 0.0
30 20:35 Calm 11.27 Fair CLR 22.9 21.1 90% 76.35 0.0
30 20:15 Calm 11.27 Fair CLR 23.6 21.2 86% 76.33 0.0
30 19:55 Calm 11.27 Fair CLR 24.6 22 28.9 9.5 86% 25 76.35 0.0
30 19:35 Calm 11.27 Fair CLR 25.7 22 80% 27 76.38 0.0
30 19:15 Calm 11.27 Fair CLR 26.4 21.4 74% 28 76.38 0.0
30 18:55 Calm 11.27 Fair CLR 26.8 20.6 69% 28 76.38 0.0
30 18:35 Calm 11.27 Fair CLR 26.8 19.7 65% 28 76.4 0.0
30 18:15 Calm 8.05 Fair with Haze CLR 27.4 19 60% 29 76.38 0.0
30 17:55 SW 6 11.27 Fair CLR 27.4 18.9 60% 29 76.38 0.0
30 17:35 SW 9 11.27 Fair CLR 27.3 18.7 59% 28 76.35 0.0
30 17:15 SW 9 8.05 Fair with Haze CLR 27.5 18.6 58% 29 76.38 0.0
30 16:55 SW 13 11.27 Fair CLR 27.6 18.4 57% 29 76.35 0.0
30 16:35 S 13 16.09 Fair CLR 27.3 18.4 58% 28 76.35 0.0
30 16:15 SW 13 11.27 Fair CLR 26.2 18.2 61% 27 76.38 0.0
30 15:55 SW 11 11.27 Fair CLR 25.8 18.1 63% 27 76.43 0.0
30 15:35 SW 11 11.27 Fair CLR 25.3 18.4 66% 26 76.4 0.0
30 15:15 S 13 16.09 Fair CLR 25 18.8 69% 26 76.38 0.0
30 14:55 S 15 11.27 Fair CLR 24.6 18.9 71% 26 76.4 0.0
30 14:35 S 13 11.27 Fair CLR 24.3 19 72% 25 76.43 0.0
30 14:15 S 22 G 33 11.27 Fair CLR 24 19 74% 25 76.4 0.0
30 13:55 S 15 16.09 Fair CLR 24.2 19.3 28.9 9.5 74% 25 76.48 0.0
30 13:35 S 9 11.27 Fair CLR 24.2 19 73% 25 76.53 0.0
30 13:15 SE 7 11.27 Partly Cloudy SCT085 SCT110 24 18.8 73% 25 76.56 0.0
30 12:55 Calm 8.05 Partly Cloudy with Haze SCT120 23.9 18.6 72% 25 76.58 0.0
30 12:35 Calm 11.27 Fair CLR 23.8 18.6 73% 76.61 0.0
30 12:15 Calm 16.09 Partly Cloudy SCT120 23.6 18 71% 76.61 0.0
30 11:55 Calm 16.09 Mostly Cloudy BKN120 23.3 18 72% 76.61 0.0
30 11:35 Calm 11.27 Mostly Cloudy BKN110 23 18.3 75% 76.58 0.0
30 11:15 Calm 16.09 Mostly Cloudy BKN120 22.7 18.6 78% 76.58 0.0
30 10:55 Calm 11.27 Partly Cloudy SCT120 22.6 18.7 79% 76.56 0.0
30 10:35 Calm 16.09 Overcast OVC120 22.6 18.1 76% 76.53 0.0
Date Time (edt) Wind (kph) Vis. (km) Weather Sky Cond. Air Dwpt Max. Min. Relative Humidity Wind Chill (°C) Heat Index (°C) altimeter (cm) sea level (mb) 1 hr 3 hr 6 hr
6 hour
Temperature (ºC) Pressure Precipitation (cm)